Time;durP1;ratioP1;P1;durP2;ratioP2;P2;SDS_P1;SDS_P2;PMS_P1;PMS_P2;Temp;Humidity;BMP_temperature;BMP_pressure;BME280_temperature;BME280_humidity;BME280_pressure;Samples;Min_cycle;Max_cycle;Signal;HPM_P1;HPM_P2
2021/07/10 00:01:19;;;;;;;6.72;6.13;;;;;;;;;;5017148;28;20018;-75
2021/07/10 00:03:44;;;;;;;8.45;6.35;;;;;;;;;;5016570;28;20040;-75
2021/07/10 00:06:09;;;;;;;11.93;6.28;;;;;;;;;;5016553;28;20516;-75
2021/07/10 00:08:35;;;;;;;7.38;6.55;;;;;;;;;;5015323;28;20018;-75
2021/07/10 00:11:02;;;;;;;6.55;5.95;;;;;;;;;;4996657;28;20062;-75
2021/07/10 00:13:30;;;;;;;7.03;6.32;;;;;;;;;;4997028;28;20089;-75
2021/07/10 00:16:00;;;;;;;9.70;6.05;;;;;;;;;;4998931;28;20038;-75
2021/07/10 00:18:25;;;;;;;7.30;6.20;;;;;;;;;;5016619;28;20311;-75
2021/07/10 00:20:50;;;;;;;9.10;6.90;;;;;;;;;;4997905;28;20029;-75
2021/07/10 00:23:18;;;;;;;6.80;6.10;;;;;;;;;;4979523;28;20022;-76
2021/07/10 00:25:43;;;;;;;7.18;6.53;;;;;;;;;;4996545;28;20494;-75
2021/07/10 00:28:09;;;;;;;9.20;6.38;;;;;;;;;;4996527;28;20022;-75
2021/07/10 00:30:37;;;;;;;7.32;6.50;;;;;;;;;;4996913;28;20045;-75
2021/07/10 00:33:02;;;;;;;8.02;6.43;;;;;;;;;;4996849;28;20018;-75
2021/07/10 00:35:28;;;;;;;7.80;6.80;;;;;;;;;;4996912;28;20061;-75
2021/07/10 00:37:56;;;;;;;7.28;5.88;;;;;;;;;;5000436;28;20138;-75
2021/07/10 00:40:26;;;;;;;8.40;6.05;;;;;;;;;;5014718;28;20144;-75
2021/07/10 00:42:51;;;;;;;7.00;6.40;;;;;;;;;;5014941;28;20017;-75
2021/07/10 00:45:16;;;;;;;7.40;5.53;;;;;;;;;;5015631;28;20018;-75
2021/07/10 00:47:42;;;;;;;6.40;5.72;;;;;;;;;;4996666;28;20026;-75
2021/07/10 00:50:10;;;;;;;6.45;5.75;;;;;;;;;;4996281;28;20041;-75
2021/07/10 00:52:35;;;;;;;6.47;5.88;;;;;;;;;;4982001;28;20046;-75
2021/07/10 00:55:01;;;;;;;6.28;5.45;;;;;;;;;;4995397;28;20600;-75
2021/07/10 00:57:26;;;;;;;7.05;5.95;;;;;;;;;;4995645;28;20120;-75
2021/07/10 00:59:51;;;;;;;8.45;5.95;;;;;;;;;;4996306;28;20037;-75
2021/07/10 01:02:17;;;;;;;5.88;5.38;;;;;;;;;;4995707;28;20026;-75
2021/07/10 01:04:42;;;;;;;6.30;5.45;;;;;;;;;;4979034;28;20057;-75
2021/07/10 01:07:09;;;;;;;5.63;5.00;;;;;;;;;;5009325;28;20041;-75
2021/07/10 01:09:35;;;;;;;8.10;5.80;;;;;;;;;;4995736;28;20258;-75
2021/07/10 01:12:00;;;;;;;6.70;5.47;;;;;;;;;;4996090;28;20037;-75
2021/07/10 01:14:31;;;;;;;8.98;5.57;;;;;;;;;;4996145;28;20053;-75
2021/07/10 01:16:58;;;;;;;7.95;5.57;;;;;;;;;;5015712;28;20421;-75
2021/07/10 01:19:26;;;;;;;11.45;5.82;;;;;;;;;;5015608;28;20093;-75
2021/07/10 01:21:52;;;;;;;7.57;6.82;;;;;;;;;;5014986;28;20017;-75
2021/07/10 01:24:17;;;;;;;8.25;6.13;;;;;;;;;;5013276;28;20111;-75
2021/07/10 01:26:42;;;;;;;6.68;6.05;;;;;;;;;;4999120;28;20026;-75
2021/07/10 01:29:07;;;;;;;6.77;6.07;;;;;;;;;;5014124;28;20421;-75
2021/07/10 01:31:33;;;;;;;6.97;6.27;;;;;;;;;;5014931;28;20288;-75
2021/07/10 01:34:00;;;;;;;8.77;6.28;;;;;;;;;;5015689;28;20265;-75
2021/07/10 01:36:26;;;;;;;10.23;6.70;;;;;;;;;;5014816;28;20032;-75
2021/07/10 01:38:54;;;;;;;6.85;6.25;;;;;;;;;;5015115;28;20028;-76
2021/07/10 01:41:19;;;;;;;6.47;5.80;;;;;;;;;;5015385;28;20088;-75
2021/07/10 01:43:44;;;;;;;7.57;6.78;;;;;;;;;;4999934;28;20121;-75
2021/07/10 01:46:09;;;;;;;7.20;6.50;;;;;;;;;;5005155;28;20025;-75
2021/07/10 01:48:35;;;;;;;6.80;6.10;;;;;;;;;;5023432;28;20036;-75
2021/07/10 01:51:00;;;;;;;7.13;6.00;;;;;;;;;;5026471;28;20249;-75
2021/07/10 01:53:25;;;;;;;6.85;6.18;;;;;;;;;;5014520;28;20293;-75
2021/07/10 01:55:50;;;;;;;7.18;6.50;;;;;;;;;;5015004;28;20025;-75
2021/07/10 01:58:16;;;;;;;6.68;5.88;;;;;;;;;;5009143;28;20022;-75
2021/07/10 02:00:43;;;;;;;7.15;5.90;;;;;;;;;;5014681;28;20083;-75
2021/07/10 02:03:08;;;;;;;6.30;5.70;;;;;;;;;;4996700;28;20108;-75
2021/07/10 02:05:36;;;;;;;8.20;5.97;;;;;;;;;;5014575;28;20101;-75
2021/07/10 02:08:03;;;;;;;6.47;5.60;;;;;;;;;;5013925;28;20351;-75
2021/07/10 02:10:29;;;;;;;9.57;5.60;;;;;;;;;;5014314;28;20037;-75
2021/07/10 02:12:58;;;;;;;7.18;5.05;;;;;;;;;;5007085;28;20026;-76
2021/07/10 02:15:24;;;;;;;8.27;5.55;;;;;;;;;;4994143;28;20342;-75
2021/07/10 02:17:52;;;;;;;6.13;5.30;;;;;;;;;;4997400;28;20022;-75
2021/07/10 02:20:21;;;;;;;6.30;5.70;;;;;;;;;;5013996;28;20025;-75
2021/07/10 02:22:46;;;;;;;7.38;5.75;;;;;;;;;;5013838;28;20096;-75
2021/07/10 02:25:13;;;;;;;7.10;5.72;;;;;;;;;;5014165;28;20108;-75
2021/07/10 02:27:38;;;;;;;6.45;5.82;;;;;;;;;;5003033;28;20058;-75
2021/07/10 02:30:07;;;;;;;6.55;5.95;;;;;;;;;;4994598;28;20053;-75
2021/07/10 02:32:32;;;;;;;6.75;6.15;;;;;;;;;;4994617;28;20030;-75
2021/07/10 02:35:03;;;;;;;7.47;5.70;;;;;;;;;;4977070;28;20073;-75
2021/07/10 02:37:31;;;;;;;7.88;6.45;;;;;;;;;;4977226;28;20297;-75
2021/07/10 02:39:56;;;;;;;8.85;6.30;;;;;;;;;;4977434;28;20030;-75
2021/07/10 02:42:21;;;;;;;7.30;6.53;;;;;;;;;;4994762;28;20049;-75
2021/07/10 02:44:46;;;;;;;9.50;7.00;;;;;;;;;;4994099;28;20026;-75
2021/07/10 02:47:16;;;;;;;6.95;6.22;;;;;;;;;;4977253;28;20734;-75
2021/07/10 02:49:42;;;;;;;8.55;6.20;;;;;;;;;;4994533;28;20018;-75
2021/07/10 02:52:08;;;;;;;6.57;5.90;;;;;;;;;;5001854;28;20057;-74
2021/07/10 02:54:37;;;;;;;9.50;6.40;;;;;;;;;;5014096;28;20120;-75
2021/07/10 02:57:02;;;;;;;7.80;6.75;;;;;;;;;;5006949;28;20026;-75
2021/07/10 02:59:30;;;;;;;7.28;6.57;;;;;;;;;;4994874;28;20033;-75
2021/07/10 03:01:55;;;;;;;9.23;7.10;;;;;;;;;;4977259;28;20034;-75
2021/07/10 03:04:21;;;;;;;7.28;6.60;;;;;;;;;;4994029;28;20019;-75
2021/07/10 03:06:46;;;;;;;9.23;7.27;;;;;;;;;;4994308;28;20030;-75
2021/07/10 03:09:13;;;;;;;8.80;7.00;;;;;;;;;;4977078;28;20278;-75
2021/07/10 03:11:39;;;;;;;7.93;7.13;;;;;;;;;;4993906;28;20261;-75
2021/07/10 03:14:04;;;;;;;8.00;6.97;;;;;;;;;;4994087;28;20018;-75
2021/07/10 03:16:29;;;;;;;8.88;7.30;;;;;;;;;;4993757;28;20026;-75
2021/07/10 03:18:54;;;;;;;7.32;6.63;;;;;;;;;;4994131;28;20470;-75
2021/07/10 03:21:22;;;;;;;11.80;6.80;;;;;;;;;;4986882;28;20356;-75
2021/07/10 03:23:47;;;;;;;7.28;6.60;;;;;;;;;;4994013;28;20262;-75
2021/07/10 03:26:13;;;;;;;8.95;7.00;;;;;;;;;;4992993;28;20458;-75
2021/07/10 03:28:40;;;;;;;7.70;7.00;;;;;;;;;;4993200;28;20289;-75
2021/07/10 03:31:06;;;;;;;8.18;7.00;;;;;;;;;;4993716;28;20269;-75
2021/07/10 03:33:35;;;;;;;9.68;7.22;;;;;;;;;;4993946;28;20018;-75
2021/07/10 03:36:01;;;;;;;8.23;6.97;;;;;;;;;;4994130;28;20486;-75
2021/07/10 03:38:26;;;;;;;8.98;7.38;;;;;;;;;;4994729;28;20070;-75
2021/07/10 03:40:51;;;;;;;8.80;7.70;;;;;;;;;;5005274;28;20359;-75
2021/07/10 03:43:16;;;;;;;9.83;7.83;;;;;;;;;;4993202;28;20045;-75
2021/07/10 03:45:42;;;;;;;9.37;7.73;;;;;;;;;;5003082;28;20285;-75
2021/07/10 03:48:07;;;;;;;9.23;7.95;;;;;;;;;;5013496;28;20253;-75
2021/07/10 03:50:35;;;;;;;9.30;8.25;;;;;;;;;;4996465;28;20018;-75
2021/07/10 03:53:00;;;;;;;11.55;8.57;;;;;;;;;;5013101;28;20133;-75
2021/07/10 03:55:28;;;;;;;8.93;8.13;;;;;;;;;;5013515;28;20446;-75
2021/07/10 03:57:53;;;;;;;11.45;9.13;;;;;;;;;;5013331;28;20474;-75
2021/07/10 04:00:19;;;;;;;10.03;8.90;;;;;;;;;;5012525;28;20056;-75
2021/07/10 04:02:47;;;;;;;11.07;8.95;;;;;;;;;;5013209;28;20326;-75
2021/07/10 04:05:12;;;;;;;11.32;8.50;;;;;;;;;;5012701;28;20357;-75
2021/07/10 04:07:38;;;;;;;10.93;8.65;;;;;;;;;;5013473;28;20100;-75
2021/07/10 04:10:04;;;;;;;10.65;9.10;;;;;;;;;;5013280;28;20022;-75
2021/07/10 04:12:32;;;;;;;10.60;9.60;;;;;;;;;;5013398;28;20026;-75
2021/07/10 04:15:00;;;;;;;13.45;9.82;;;;;;;;;;5013653;28;20057;-75
2021/07/10 04:17:32;;;;;;;12.20;10.93;;;;;;;;;;5016591;28;20025;-75
2021/07/10 04:19:57;;;;;;;13.63;11.07;;;;;;;;;;5016207;28;20018;-75
2021/07/10 04:22:23;;;;;;;12.48;11.23;;;;;;;;;;5005080;28;20033;-75
2021/07/10 04:24:48;;;;;;;13.38;12.02;;;;;;;;;;4996865;28;20022;-75
2021/07/10 04:27:16;;;;;;;15.85;13.00;;;;;;;;;;4978768;28;20010;-75
2021/07/10 04:29:48;;;;;;;14.57;13.05;;;;;;;;;;4996722;28;20022;-75
2021/07/10 04:32:13;;;;;;;14.32;12.80;;;;;;;;;;5003683;28;20025;-75
2021/07/10 04:34:39;;;;;;;16.85;14.43;;;;;;;;;;5016155;28;20022;-75
2021/07/10 04:37:04;;;;;;;19.23;14.93;;;;;;;;;;5016299;28;20033;-75
2021/07/10 04:39:29;;;;;;;15.55;14.00;;;;;;;;;;5016524;28;20021;-76
2021/07/10 04:41:54;;;;;;;16.67;13.88;;;;;;;;;;4992859;28;20392;-75
2021/07/10 04:44:20;;;;;;;15.93;14.23;;;;;;;;;;4996296;28;20106;-75
2021/07/10 04:46:45;;;;;;;16.35;14.30;;;;;;;;;;4995988;28;20033;-75
2021/07/10 04:49:11;;;;;;;15.70;14.03;;;;;;;;;;4996672;28;20023;-75
2021/07/10 04:51:36;;;;;;;15.77;14.13;;;;;;;;;;4996565;28;20273;-75
2021/07/10 04:54:04;;;;;;;16.17;14.52;;;;;;;;;;4996475;28;20118;-75
2021/07/10 04:56:29;;;;;;;16.95;14.65;;;;;;;;;;4995233;28;20387;-75
2021/07/10 04:58:54;;;;;;;16.25;14.65;;;;;;;;;;5000084;28;20029;-75
2021/07/10 05:01:19;;;;;;;16.15;14.45;;;;;;;;;;5004971;28;20105;-76
2021/07/10 05:03:47;;;;;;;15.88;14.27;;;;;;;;;;5016009;28;20033;-75
2021/07/10 05:06:12;;;;;;;17.40;15.63;;;;;;;;;;5015628;28;20061;-75
2021/07/10 05:08:37;;;;;;;16.60;14.43;;;;;;;;;;5015871;28;20056;-75
2021/07/10 05:11:02;;;;;;;17.47;14.70;;;;;;;;;;5015406;28;20276;-75
2021/07/10 05:13:30;;;;;;;17.70;15.10;;;;;;;;;;5015362;28;20559;-75
2021/07/10 05:15:56;;;;;;;19.90;16.00;;;;;;;;;;5001395;28;20077;-75
2021/07/10 05:18:21;;;;;;;16.55;15.00;;;;;;;;;;4996247;28;20120;-75
2021/07/10 05:20:51;;;;;;;17.50;15.70;;;;;;;;;;4996877;28;20434;-75
2021/07/10 05:23:16;;;;;;;16.80;15.25;;;;;;;;;;5015595;28;20260;-75
2021/07/10 05:25:44;;;;;;;16.65;14.73;;;;;;;;;;4998174;28;20331;-75
2021/07/10 05:28:09;;;;;;;20.63;15.50;;;;;;;;;;4991817;28;20022;-74
2021/07/10 05:30:35;;;;;;;18.52;14.93;;;;;;;;;;4995495;28;20053;-75
2021/07/10 05:33:01;;;;;;;17.33;14.55;;;;;;;;;;4999062;28;20482;-75
2021/07/10 05:35:27;;;;;;;17.00;13.45;;;;;;;;;;5015206;28;20030;-75
2021/07/10 05:37:52;;;;;;;16.92;13.68;;;;;;;;;;5015237;28;20022;-75
2021/07/10 05:40:20;;;;;;;15.73;13.55;;;;;;;;;;4998257;28;20080;-75
2021/07/10 05:42:48;;;;;;;15.90;13.52;;;;;;;;;;4996098;28;20022;-75
2021/07/10 05:45:14;;;;;;;13.88;12.38;;;;;;;;;;4978150;28;20061;-75
2021/07/10 05:47:39;;;;;;;14.98;13.57;;;;;;;;;;4994798;28;20050;-76
2021/07/10 05:50:08;;;;;;;14.93;13.20;;;;;;;;;;4995530;28;20026;-75
2021/07/10 05:52:33;;;;;;;14.15;12.43;;;;;;;;;;4995397;28;20104;-75
2021/07/10 05:55:02;;;;;;;15.27;13.20;;;;;;;;;;4994814;28;20034;-75
2021/07/10 05:57:27;;;;;;;13.65;12.25;;;;;;;;;;4994994;28;20072;-75
2021/07/10 05:59:54;;;;;;;15.60;13.37;;;;;;;;;;5007106;28;20470;-75
2021/07/10 06:02:20;;;;;;;16.85;13.07;;;;;;;;;;5009394;28;20356;-75
2021/07/10 06:04:45;;;;;;;15.00;13.38;;;;;;;;;;4993536;28;20106;-75
2021/07/10 06:07:10;;;;;;;17.63;13.50;;;;;;;;;;4994926;28;20018;-75
2021/07/10 06:09:35;;;;;;;15.48;13.63;;;;;;;;;;4994962;28;20029;-75
2021/07/10 06:12:01;;;;;;;15.75;13.70;;;;;;;;;;4994668;28;20046;-75
2021/07/10 06:14:26;;;;;;;14.95;13.50;;;;;;;;;;4994855;28;20018;-75
2021/07/10 06:16:54;;;;;;;17.55;13.80;;;;;;;;;;4996460;28;20359;-75
2021/07/10 06:19:19;;;;;;;14.43;12.90;;;;;;;;;;5014270;28;20029;-75
2021/07/10 06:21:45;;;;;;;16.23;14.63;;;;;;;;;;5013895;28;20025;-75
2021/07/10 06:24:10;;;;;;;16.20;14.18;;;;;;;;;;5014040;28;20375;-75
2021/07/10 06:26:35;;;;;;;19.60;15.00;;;;;;;;;;5014171;28;20426;-75
2021/07/10 06:29:02;;;;;;;16.25;14.27;;;;;;;;;;4996915;28;20014;-75
2021/07/10 06:31:29;;;;;;;16.02;14.30;;;;;;;;;;4994368;28;20077;-75
2021/07/10 06:33:54;;;;;;;17.70;14.05;;;;;;;;;;5009853;28;20415;-75
2021/07/10 06:36:22;;;;;;;16.38;13.02;;;;;;;;;;5013683;28;20045;-75
2021/07/10 06:38:47;;;;;;;15.30;13.30;;;;;;;;;;5012608;28;20048;-75
2021/07/10 06:41:12;;;;;;;16.07;13.80;;;;;;;;;;5014002;28;20467;-75
2021/07/10 06:43:37;;;;;;;15.77;13.37;;;;;;;;;;4992352;28;20336;-75
2021/07/10 06:46:07;;;;;;;16.27;14.02;;;;;;;;;;4994137;28;20285;-75
2021/07/10 06:48:32;;;;;;;18.10;14.02;;;;;;;;;;4993874;28;20018;-76
2021/07/10 06:50:57;;;;;;;16.33;13.80;;;;;;;;;;4993957;28;20089;-75
2021/07/10 06:53:23;;;;;;;16.37;14.47;;;;;;;;;;4993996;28;20603;-75
2021/07/10 06:55:51;;;;;;;14.55;12.98;;;;;;;;;;4994266;28;20694;-75
2021/07/10 06:58:16;;;;;;;15.48;13.90;;;;;;;;;;4999564;28;20009;-76
2021/07/10 07:00:41;;;;;;;15.20;13.60;;;;;;;;;;5013513;28;20362;-75
2021/07/10 07:03:07;;;;;;;18.00;13.90;;;;;;;;;;5013678;28;20567;-75
2021/07/10 07:05:37;;;;;;;18.08;14.27;;;;;;;;;;5002924;28;20168;-75
2021/07/10 07:08:04;;;;;;;16.17;14.30;;;;;;;;;;4976644;28;20026;-75
2021/07/10 07:10:30;;;;;;;16.38;14.25;;;;;;;;;;5002536;28;20351;-75
2021/07/10 07:12:55;;;;;;;16.13;13.25;;;;;;;;;;5013733;28;20029;-75
2021/07/10 07:15:20;;;;;;;14.87;12.00;;;;;;;;;;5006428;28;20027;-75
2021/07/10 07:17:48;;;;;;;13.35;11.80;;;;;;;;;;4994293;28;20332;-75
2021/07/10 07:20:14;;;;;;;15.90;12.45;;;;;;;;;;4994260;28;20026;-75
2021/07/10 07:22:47;;;;;;;12.88;11.57;;;;;;;;;;5000292;28;20018;-76
2021/07/10 07:25:15;;;;;;;12.32;10.43;;;;;;;;;;5013550;28;20049;-75
2021/07/10 07:27:41;;;;;;;10.82;9.73;;;;;;;;;;4999216;28;20015;-75
2021/07/10 07:30:10;;;;;;;13.75;9.82;;;;;;;;;;5013424;28;20060;-75
2021/07/10 07:32:35;;;;;;;11.02;9.82;;;;;;;;;;5013618;28;20030;-75
2021/07/10 07:35:02;;;;;;;10.50;9.30;;;;;;;;;;5013597;28;20088;-75
2021/07/10 07:37:28;;;;;;;11.05;9.60;;;;;;;;;;4996225;28;20025;-75
2021/07/10 07:39:55;;;;;;;10.43;9.23;;;;;;;;;;5013742;28;20018;-75
2021/07/10 07:42:20;;;;;;;11.80;8.95;;;;;;;;;;5005918;28;20023;-75
2021/07/10 07:44:48;;;;;;;15.65;8.70;;;;;;;;;;4993527;28;20038;-75
2021/07/10 07:47:14;;;;;;;10.32;9.00;;;;;;;;;;4993238;28;20333;-75
2021/07/10 07:49:42;;;;;;;11.65;8.55;;;;;;;;;;4994534;28;20029;-75
2021/07/10 07:52:07;;;;;;;9.98;7.68;;;;;;;;;;4996896;28;20053;-75
2021/07/10 07:54:36;;;;;;;9.60;8.20;;;;;;;;;;4997367;28;20050;-75
2021/07/10 07:57:03;;;;;;;13.85;7.82;;;;;;;;;;4998044;28;20304;-75
2021/07/10 07:59:29;;;;;;;10.45;7.88;;;;;;;;;;4979886;28;20038;-75
2021/07/10 08:01:54;;;;;;;9.93;7.30;;;;;;;;;;4997400;28;20018;-75
2021/07/10 08:04:19;;;;;;;8.07;7.25;;;;;;;;;;4997058;28;20030;-75
2021/07/10 08:06:45;;;;;;;9.15;6.88;;;;;;;;;;4997564;28;20366;-75
2021/07/10 08:09:12;;;;;;;9.40;6.85;;;;;;;;;;4997055;28;20022;-75
2021/07/10 08:11:37;;;;;;;6.68;6.03;;;;;;;;;;4997525;28;20382;-75
2021/07/10 08:14:03;;;;;;;6.50;5.90;;;;;;;;;;4996391;28;20054;-75
2021/07/10 08:16:28;;;;;;;7.53;5.70;;;;;;;;;;4998374;28;20101;-75
2021/07/10 08:18:54;;;;;;;6.85;5.82;;;;;;;;;;5016082;28;20091;-75
2021/07/10 08:21:20;;;;;;;6.13;5.20;;;;;;;;;;4999443;28;20029;-76
2021/07/10 08:23:45;;;;;;;6.85;6.15;;;;;;;;;;4996588;28;20026;-75
2021/07/10 08:26:12;;;;;;;7.17;6.53;;;;;;;;;;4996952;28;20062;-76
2021/07/10 08:28:38;;;;;;;8.27;6.40;;;;;;;;;;5013871;28;20273;-76
2021/07/10 08:31:03;;;;;;;10.65;6.60;;;;;;;;;;5016357;28;20025;-75
2021/07/10 08:33:31;;;;;;;6.35;5.75;;;;;;;;;;5000664;28;20050;-75
2021/07/10 08:35:56;;;;;;;6.85;6.18;;;;;;;;;;4996928;28;20030;-76
2021/07/10 08:38:24;;;;;;;7.97;6.00;;;;;;;;;;4980289;28;20085;-75
2021/07/10 08:40:50;;;;;;;6.10;5.50;;;;;;;;;;4998904;28;20022;-76
2021/07/10 08:43:15;;;;;;;6.53;5.38;;;;;;;;;;5016088;28;20797;-76
2021/07/10 08:45:44;;;;;;;5.83;5.33;;;;;;;;;;5015566;28;20022;-75
2021/07/10 08:48:09;;;;;;;5.60;5.10;;;;;;;;;;4996480;28;20917;-75
2021/07/10 08:50:34;;;;;;;6.50;5.80;;;;;;;;;;4996575;28;20102;-75
2021/07/10 08:53:00;;;;;;;7.23;5.60;;;;;;;;;;4995523;28;20372;-75
2021/07/10 08:55:27;;;;;;;6.88;5.18;;;;;;;;;;4996056;28;20289;-75
2021/07/10 08:57:53;;;;;;;6.38;4.78;;;;;;;;;;4979033;28;20023;-75
2021/07/10 09:00:23;;;;;;;5.75;4.55;;;;;;;;;;5001790;28;20463;-75
2021/07/10 09:02:49;;;;;;;5.97;4.60;;;;;;;;;;5015687;28;20076;-76
2021/07/10 09:05:15;;;;;;;7.38;4.82;;;;;;;;;;5010394;28;20022;-75
2021/07/10 09:07:59;;;;;;;6.00;4.57;;;;;;;;;;4978544;28;20011;-76
2021/07/10 09:10:34;;;;;;;6.80;4.45;;;;;;;;;;4995737;28;20084;-76
2021/07/10 09:12:59;;;;;;;5.40;4.90;;;;;;;;;;4995919;28;20454;-75
2021/07/10 09:15:25;;;;;;;5.10;4.60;;;;;;;;;;4995548;28;20109;-75
2021/07/10 09:17:50;;;;;;;5.50;5.00;;;;;;;;;;4979097;28;20096;-76
2021/07/10 09:20:19;;;;;;;6.23;4.97;;;;;;;;;;5007280;28;20273;-75
2021/07/10 09:22:44;;;;;;;6.70;5.03;;;;;;;;;;5015468;28;20717;-75
2021/07/10 09:25:21;;;;;;;7.70;5.05;;;;;;;;;;4998270;28;20030;-75
2021/07/10 09:27:53;;;;;;;6.45;5.25;;;;;;;;;;4993234;28;20019;-75
2021/07/10 09:30:40;;;;;;;5.15;4.68;;;;;;;;;;4995487;28;20022;-76
2021/07/10 09:33:15;;;;;;;5.22;4.72;;;;;;;;;;4995505;28;20450;-75
2021/07/10 09:35:54;;;;;;;6.40;4.45;;;;;;;;;;4995880;28;20026;-75
2021/07/10 09:38:20;;;;;;;6.45;4.90;;;;;;;;;;4995136;28;20070;-76
2021/07/10 09:41:15;;;;;;;5.03;4.57;;;;;;;;;;4995647;28;20030;-76
2021/07/10 09:43:40;;;;;;;4.80;4.40;;;;;;;;;;4982069;28;20414;-75
2021/07/10 09:46:07;;;;;;;12.90;10.77;;;;;;;;;;4995500;28;20086;-75
2021/07/10 09:48:40;;;;;;;8.23;5.22;;;;;;;;;;4995600;28;20257;-76
2021/07/10 09:51:35;;;;;;;5.03;4.47;;;;;;;;;;4978286;28;20041;-75
2021/07/10 09:54:02;;;;;;;6.05;4.22;;;;;;;;;;4965320;28;20466;-77
2021/07/10 09:56:31;;;;;;;4.68;4.30;;;;;;;;;;4995200;28;20026;-77
2021/07/10 09:58:57;;;;;;;5.07;4.55;;;;;;;;;;5014433;28;20040;-76
2021/07/10 10:01:35;;;;;;;4.70;4.03;;;;;;;;;;5015091;28;20033;-76
2021/07/10 10:04:01;;;;;;;5.10;4.63;;;;;;;;;;4998044;28;20148;-76
2021/07/10 10:06:31;;;;;;;5.45;4.15;;;;;;;;;;5014124;28;20111;-76
2021/07/10 10:08:59;;;;;;;5.43;4.50;;;;;;;;;;5014445;28;20034;-76
2021/07/10 10:11:24;;;;;;;6.60;4.10;;;;;;;;;;5014149;28;20010;-76
2021/07/10 10:13:49;;;;;;;5.20;4.10;;;;;;;;;;4996378;28;20435;-76
2021/07/10 10:16:15;;;;;;;5.10;4.03;;;;;;;;;;5009200;28;20054;-76
2021/07/10 10:18:43;;;;;;;5.90;4.20;;;;;;;;;;4994756;28;20258;-76
2021/07/10 10:21:08;;;;;;;7.13;4.40;;;;;;;;;;4995243;28;20419;-76
2021/07/10 10:23:34;;;;;;;4.90;3.80;;;;;;;;;;5014371;28;20059;-76
2021/07/10 10:26:00;;;;;;;4.35;3.80;;;;;;;;;;4996942;28;20061;-76
2021/07/10 10:28:25;;;;;;;5.20;4.28;;;;;;;;;;5013893;28;20026;-76
2021/07/10 10:30:51;;;;;;;4.53;4.13;;;;;;;;;;5014267;28;20022;-76
2021/07/10 10:33:19;;;;;;;4.88;4.25;;;;;;;;;;5014347;28;20137;-76
2021/07/10 10:35:46;;;;;;;6.05;3.97;;;;;;;;;;5014541;28;20025;-77
2021/07/10 10:38:11;;;;;;;5.72;4.15;;;;;;;;;;5003264;28;20085;-76
2021/07/10 10:40:36;;;;;;;4.85;4.35;;;;;;;;;;4994433;28;20027;-76
2021/07/10 10:43:03;;;;;;;6.72;4.15;;;;;;;;;;4994244;28;20037;-76
2021/07/10 10:45:35;;;;;;;7.25;5.35;;;;;;;;;;4994484;28;20026;-76
2021/07/10 10:48:00;;;;;;;5.55;4.18;;;;;;;;;;4993883;28;20030;-76
2021/07/10 10:50:34;;;;;;;4.85;3.70;;;;;;;;;;4994598;28;20028;-76
2021/07/10 10:52:59;;;;;;;6.95;4.30;;;;;;;;;;4999817;28;20042;-76
2021/07/10 10:55:27;;;;;;;5.75;4.07;;;;;;;;;;5014445;28;20036;-76
2021/07/10 10:57:58;;;;;;;7.40;4.90;;;;;;;;;;5013096;28;20025;-76
2021/07/10 11:00:23;;;;;;;4.28;3.90;;;;;;;;;;4992699;28;20104;-76
2021/07/10 11:02:50;;;;;;;4.57;4.17;;;;;;;;;;4994237;28;20030;-76
2021/07/10 11:05:31;;;;;;;4.88;3.88;;;;;;;;;;5011202;28;20037;-76
2021/07/10 11:08:14;;;;;;;8.70;4.53;;;;;;;;;;5008359;28;20332;-76
2021/07/10 11:10:40;;;;;;;5.15;4.15;;;;;;;;;;5013429;28;20025;-76
2021/07/10 11:13:05;;;;;;;6.25;4.30;;;;;;;;;;4994836;28;20025;-76
2021/07/10 11:15:40;;;;;;;4.57;4.10;;;;;;;;;;4994139;28;20084;-76
2021/07/10 11:18:25;;;;;;;4.47;4.10;;;;;;;;;;4977056;28;20297;-76
2021/07/10 11:20:52;;;;;;;7.10;4.15;;;;;;;;;;5012851;28;20033;-76
2021/07/10 11:23:27;;;;;;;5.20;3.95;;;;;;;;;;5013963;28;20056;-76
2021/07/10 11:25:52;;;;;;;4.78;4.25;;;;;;;;;;5016802;28;20109;-76
2021/07/10 11:28:23;;;;;;;5.90;4.07;;;;;;;;;;5002277;28;20169;-76
2021/07/10 11:30:52;;;;;;;4.75;3.97;;;;;;;;;;4997710;28;20018;-76
2021/07/10 11:33:36;;;;;;;4.35;3.95;;;;;;;;;;4998128;28;20022;-76
2021/07/10 11:36:21;;;;;;;5.25;4.18;;;;;;;;;;4980660;28;20036;-76
2021/07/10 11:38:46;;;;;;;4.15;3.33;;;;;;;;;;5005265;28;20489;-76
2021/07/10 11:41:11;;;;;;;6.13;4.15;;;;;;;;;;4999710;28;20026;-76
2021/07/10 11:43:37;;;;;;;4.10;3.50;;;;;;;;;;5000040;28;20022;-76
2021/07/10 11:46:03;;;;;;;4.35;3.30;;;;;;;;;;5016969;28;20276;-76
2021/07/10 11:48:30;;;;;;;6.28;3.30;;;;;;;;;;5000325;28;20457;-75
2021/07/10 11:51:18;;;;;;;3.83;2.92;;;;;;;;;;5016780;28;20025;-75
2021/07/10 11:53:43;;;;;;;3.38;2.80;;;;;;;;;;5016858;28;20100;-74
2021/07/10 11:56:09;;;;;;;2.97;2.70;;;;;;;;;;5000227;28;20034;-74
2021/07/10 11:58:40;;;;;;;3.45;3.10;;;;;;;;;;5017375;28;20340;-74
2021/07/10 12:01:08;;;;;;;3.70;3.00;;;;;;;;;;5005287;28;20076;-74
2021/07/10 12:03:33;;;;;;;4.72;3.20;;;;;;;;;;4997263;28;20018;-75
2021/07/10 12:05:59;;;;;;;4.63;3.00;;;;;;;;;;4979550;28;20038;-75
2021/07/10 12:08:24;;;;;;;3.90;3.30;;;;;;;;;;4997377;28;20023;-77
2021/07/10 12:10:50;;;;;;;4.10;3.30;;;;;;;;;;4997333;28;20101;-77
2021/07/10 12:13:23;;;;;;;4.40;3.03;;;;;;;;;;4997503;28;20112;-77
2021/07/10 12:15:52;;;;;;;3.53;3.03;;;;;;;;;;4996560;28;20027;-77
2021/07/10 12:18:18;;;;;;;3.15;2.80;;;;;;;;;;4997147;28;20101;-77
2021/07/10 12:20:46;;;;;;;6.53;2.90;;;;;;;;;;4997458;28;20144;-77
2021/07/10 12:23:15;;;;;;;5.60;3.03;;;;;;;;;;5001018;28;20055;-77
2021/07/10 12:25:43;;;;;;;5.40;4.45;;;;;;;;;;5016366;28;20029;-77
2021/07/10 12:28:09;;;;;;;4.65;3.30;;;;;;;;;;5002493;28;20506;-77
2021/07/10 12:30:50;;;;;;;3.50;3.08;;;;;;;;;;4997117;28;20112;-77
2021/07/10 12:33:34;;;;;;;3.35;3.05;;;;;;;;;;4996948;28;20119;-76
2021/07/10 12:36:00;;;;;;;3.20;2.83;;;;;;;;;;4996258;28;20014;-76
2021/07/10 12:38:25;;;;;;;3.22;2.97;;;;;;;;;;5015710;28;20026;-76
2021/07/10 12:40:52;;;;;;;3.10;2.80;;;;;;;;;;5016254;28;20033;-76
2021/07/10 12:43:24;;;;;;;3.53;2.88;;;;;;;;;;5016752;28;20366;-76
2021/07/10 12:45:59;;;;;;;4.80;2.65;;;;;;;;;;5000432;28;20524;-76
2021/07/10 12:48:24;;;;;;;3.08;2.55;;;;;;;;;;4996696;28;20045;-75
2021/07/10 12:50:49;;;;;;;3.73;2.40;;;;;;;;;;4996704;28;20026;-75
2021/07/10 12:53:16;;;;;;;2.67;2.30;;;;;;;;;;4995145;28;20073;-74
2021/07/10 12:55:59;;;;;;;3.83;2.67;;;;;;;;;;4995424;28;20288;-75
2021/07/10 12:58:24;;;;;;;5.90;2.38;;;;;;;;;;4996553;28;20030;-77
2021/07/10 13:00:52;;;;;;;2.50;2.30;;;;;;;;;;4979228;28;20034;-77
2021/07/10 13:03:22;;;;;;;2.97;2.40;;;;;;;;;;4995905;28;20281;-77
2021/07/10 13:05:47;;;;;;;3.42;2.70;;;;;;;;;;4996390;28;20073;-77
2021/07/10 13:08:25;;;;;;;3.63;2.80;;;;;;;;;;4996319;28;20444;-77
2021/07/10 13:11:03;;;;;;;4.70;3.08;;;;;;;;;;4995908;28;20033;-77
2021/07/10 13:13:33;;;;;;;2.88;2.67;;;;;;;;;;4995725;28;20027;-77
2021/07/10 13:16:06;;;;;;;3.95;3.00;;;;;;;;;;4995870;28;20022;-77
2021/07/10 13:18:33;;;;;;;3.20;2.90;;;;;;;;;;4996183;28;20030;-75
2021/07/10 13:21:02;;;;;;;3.03;2.72;;;;;;;;;;4995601;28;20057;-74
2021/07/10 13:23:35;;;;;;;4.20;2.80;;;;;;;;;;4996114;28;20014;-74
2021/07/10 13:26:04;;;;;;;3.03;2.65;;;;;;;;;;4995554;28;20080;-74
2021/07/10 13:28:34;;;;;;;2.45;2.25;;;;;;;;;;5000061;28;20022;-74
2021/07/10 13:31:10;;;;;;;3.38;2.35;;;;;;;;;;5015135;28;20067;-74
2021/07/10 13:33:36;;;;;;;2.90;2.38;;;;;;;;;;5014806;28;20029;-74
2021/07/10 13:36:05;;;;;;;4.57;2.22;;;;;;;;;;5013747;28;20036;-74
2021/07/10 13:38:34;;;;;;;5.82;2.38;;;;;;;;;;5008497;28;20026;-75
2021/07/10 13:41:12;;;;;;;2.20;2.00;;;;;;;;;;4994779;28;20022;-75
2021/07/10 13:43:37;;;;;;;2.67;2.00;;;;;;;;;;4994893;28;20022;-75
2021/07/10 13:46:09;;;;;;;3.17;2.17;;;;;;;;;;4995365;28;20022;-75
2021/07/10 13:48:34;;;;;;;2.53;2.03;;;;;;;;;;4977395;28;20521;-75
2021/07/10 13:51:03;;;;;;;3.10;1.90;;;;;;;;;;4995244;28;20034;-75
2021/07/10 13:53:28;;;;;;;3.20;1.90;;;;;;;;;;4994978;28;20042;-75
2021/07/10 13:55:53;;;;;;;2.25;1.80;;;;;;;;;;4995320;28;20454;-75
2021/07/10 13:58:26;;;;;;;1.77;1.60;;;;;;;;;;4994467;28;20117;-75
2021/07/10 14:00:51;;;;;;;3.88;1.80;;;;;;;;;;5011367;28;20033;-75
2021/07/10 14:03:17;;;;;;;2.30;1.50;;;;;;;;;;5014718;28;20032;-75
2021/07/10 14:05:44;;;;;;;2.03;1.43;;;;;;;;;;5013754;28;20030;-75
2021/07/10 14:08:13;;;;;;;2.33;1.65;;;;;;;;;;5014750;28;20280;-74
2021/07/10 14:10:51;;;;;;;2.58;2.05;;;;;;;;;;5001509;28;20109;-74
2021/07/10 14:13:17;;;;;;;2.75;1.92;;;;;;;;;;4994806;28;20512;-74
2021/07/10 14:15:44;;;;;;;4.57;2.20;;;;;;;;;;4994668;28;20118;-76
2021/07/10 14:18:12;;;;;;;2.08;1.90;;;;;;;;;;4995065;28;20101;-74
2021/07/10 14:20:40;;;;;;;4.25;2.20;;;;;;;;;;5006589;28;20038;-74
2021/07/10 14:23:06;;;;;;;3.42;2.22;;;;;;;;;;5014342;28;20455;-75
2021/07/10 14:25:32;;;;;;;5.13;2.35;;;;;;;;;;5002924;28;20065;-74
2021/07/10 14:27:57;;;;;;;2.10;1.90;;;;;;;;;;4995420;28;20029;-74
2021/07/10 14:30:24;;;;;;;4.45;2.63;;;;;;;;;;4995271;28;20019;-74
2021/07/10 14:32:50;;;;;;;3.20;2.40;;;;;;;;;;4995266;28;20362;-74
2021/07/10 14:35:15;;;;;;;3.90;2.38;;;;;;;;;;4994137;28;20026;-74
2021/07/10 14:37:41;;;;;;;3.63;2.28;;;;;;;;;;4994420;28;20463;-75